タヒチ島 の空港の天気 - METARとTAF

タヒチ・ファアア国際空港 ( NTAA / PPT ) - フランス領ポリネシア タヒチ島
飛行場実況気象(Metar)
観測時間01/28 22:00 TAHT (01/29 08:00 UTC)
風向・風速不定 1m/s
視程10km以上
天気現象
少しの雲 雲底高度 610m
全天の8割程度の雲 雲底高度 7920m
気温26℃
湿度79%
気圧1015hPa
METARNTAA 290800Z VRB02KT 9999 FEW020CB BKN260 26/22 Q1015 TEMPO 04015G25KT 4000 TSRA FEW016CB BKN040
過去の天気等 Google飛行場航空写真 Wunderground天気予報

過去48時間のMETAR

飛行場予報(TAF)
発表時間: 1/28 19:00 TAHT (1/29 05:00 UTC)
予報対象時間: 28日20時 TAHT ~ 30日2時 TAHT
風向・風速不定 3m/s
視程10km以上
少しの雲 雲底高度 700m
全天の4割程度の雲 雲底高度 1520m
28日23時 TAHT ~ 29日5時 TAHT に 確率 40% で一時的に
風向・風速北東 8m/s 瞬間風速 15m/s
視程4000m
天気現象雷雨
少しの積乱雲 雲底高度 460m
全天の8割程度の雲 雲底高度 1220m
29日8時 TAHT ~ 29日10時 TAHT に徐々に
風向・風速北東 6m/s
29日10時 TAHT ~ 29日20時 TAHT に 確率 30% で一時的に
風向・風速北東 8m/s 瞬間風速 13m/s
視程4000m
天気現象雷雨
少しの積乱雲 雲底高度 460m
全天の8割程度の雲 雲底高度 1220m
TAF NTAA 290500Z 2906/3012 VRB05KT 9999 FEW023 SCT050
PROB40 TEMPO 2909/2915 04015G30KT 4000 TSRA FEW015CB BKN040
BECMG 2918/2920 04012KT
PROB30 TEMPO 2920/3006 05015G25KT 4000 TSRA FEW015CB BKN040